Jefferson Hills, Pennsylvania
Current Conditions -  °F | °C
As of 8:53 PM on Thursday 18 Dec 2014 (Local Time) from KAGC Reporting Station
Overcast Overcast  
Wind Chill: 19°   Ceiling: 1700
Heat Index: 27°   Visibility: 10mi
Dew Point: 19°   Wind: 7mph
Humidity: 72%   Direction: 270°W
Pressure: 30.13"   Gusts: NA
Location:  40.2958°N, 79.9241°W
Report Text: KAGC 190153Z 27006KT 10SM OVC017 M03/M07 A3013 RMK AO2 SLP223 T10281072
Loading
Personal Weather Stations






























Interactive Weather Map New forecast layout! Learn more

10-Day Weather Forecast

Advertisements
Track Severe Weather on mobile